sensor_id;sensor_type;location;lat;lon;timestamp;pressure;altitude;pressure_sealevel;temperature;humidity
77017;BME280;65949;53.132;17.930;2023-05-25T00:01:36;101579.58;;;11.98;82.50
77017;BME280;65949;53.132;17.930;2023-05-25T00:04:03;101579.54;;;11.95;82.15
77017;BME280;65949;53.132;17.930;2023-05-25T00:06:31;101579.96;;;11.92;82.28
77017;BME280;65949;53.132;17.930;2023-05-25T00:08:57;101581.14;;;11.90;82.45
77017;BME280;65949;53.132;17.930;2023-05-25T00:11:25;101582.05;;;11.89;82.32
77017;BME280;65949;53.132;17.930;2023-05-25T00:13:52;101580.61;;;11.87;82.38
77017;BME280;65949;53.132;17.930;2023-05-25T00:16:19;101587.89;;;11.85;82.27
77017;BME280;65949;53.132;17.930;2023-05-25T00:18:46;101589.48;;;11.83;82.46
77017;BME280;65949;53.132;17.930;2023-05-25T00:21:14;101588.52;;;11.81;82.60
77017;BME280;65949;53.132;17.930;2023-05-25T00:23:41;101587.77;;;11.77;82.57
77017;BME280;65949;53.132;17.930;2023-05-25T00:26:08;101588.86;;;11.74;82.56
77017;BME280;65949;53.132;17.930;2023-05-25T00:28:35;101587.46;;;11.71;82.79
77017;BME280;65949;53.132;17.930;2023-05-25T00:31:02;101587.11;;;11.69;82.78
77017;BME280;65949;53.132;17.930;2023-05-25T00:33:29;101586.69;;;11.66;82.97
77017;BME280;65949;53.132;17.930;2023-05-25T00:35:55;101581.39;;;11.62;82.95
77017;BME280;65949;53.132;17.930;2023-05-25T00:38:22;101583.64;;;11.60;83.08
77017;BME280;65949;53.132;17.930;2023-05-25T00:40:53;101584.41;;;11.56;83.34
77017;BME280;65949;53.132;17.930;2023-05-25T00:43:20;101586.31;;;11.53;83.07
77017;BME280;65949;53.132;17.930;2023-05-25T00:45:49;101586.55;;;11.50;83.23
77017;BME280;65949;53.132;17.930;2023-05-25T00:48:17;101588.88;;;11.49;83.41
77017;BME280;65949;53.132;17.930;2023-05-25T00:50:44;101587.10;;;11.47;83.30
77017;BME280;65949;53.132;17.930;2023-05-25T00:53:12;101585.23;;;11.44;83.31
77017;BME280;65949;53.132;17.930;2023-05-25T00:55:54;101589.20;;;11.41;83.28
77017;BME280;65949;53.132;17.930;2023-05-25T00:58:26;101584.63;;;11.39;83.18
77017;BME280;65949;53.132;17.930;2023-05-25T01:00:56;101588.81;;;11.37;83.42
77017;BME280;65949;53.132;17.930;2023-05-25T01:03:25;101588.80;;;11.33;83.41
77017;BME280;65949;53.132;17.930;2023-05-25T01:05:55;101589.55;;;11.29;83.52
77017;BME280;65949;53.132;17.930;2023-05-25T01:08:24;101588.23;;;11.27;83.37
77017;BME280;65949;53.132;17.930;2023-05-25T01:10:53;101588.34;;;11.25;83.38
77017;BME280;65949;53.132;17.930;2023-05-25T01:13:22;101592.64;;;11.23;83.38
77017;BME280;65949;53.132;17.930;2023-05-25T01:15:50;101595.66;;;11.20;83.35
77017;BME280;65949;53.132;17.930;2023-05-25T01:18:18;101596.79;;;11.19;83.41
77017;BME280;65949;53.132;17.930;2023-05-25T01:21:05;101599.65;;;11.18;83.36
77017;BME280;65949;53.132;17.930;2023-05-25T01:23:46;101599.16;;;11.15;83.58
77017;BME280;65949;53.132;17.930;2023-05-25T01:26:15;101599.53;;;11.13;83.62
77017;BME280;65949;53.132;17.930;2023-05-25T01:28:50;101596.83;;;11.10;83.61
77017;BME280;65949;53.132;17.930;2023-05-25T01:31:21;101600.23;;;11.08;83.73
77017;BME280;65949;53.132;17.930;2023-05-25T01:33:51;101606.45;;;11.06;83.97
77017;BME280;65949;53.132;17.930;2023-05-25T01:36:19;101604.42;;;11.03;83.81
77017;BME280;65949;53.132;17.930;2023-05-25T01:38:46;101605.83;;;11.01;83.84
77017;BME280;65949;53.132;17.930;2023-05-25T01:41:13;101606.98;;;11.01;83.81
77017;BME280;65949;53.132;17.930;2023-05-25T01:43:46;101610.13;;;11.02;83.75
77017;BME280;65949;53.132;17.930;2023-05-25T01:46:25;101607.82;;;11.02;83.82
77017;BME280;65949;53.132;17.930;2023-05-25T01:54:44;101605.42;;;11.01;83.50
77017;BME280;65949;53.132;17.930;2023-05-25T01:57:14;101602.11;;;11.00;83.55
77017;BME280;65949;53.132;17.930;2023-05-25T01:59:45;101603.50;;;10.99;83.49
77017;BME280;65949;53.132;17.930;2023-05-25T02:02:13;101604.74;;;10.99;83.38
77017;BME280;65949;53.132;17.930;2023-05-25T02:04:41;101603.59;;;10.99;83.65
77017;BME280;65949;53.132;17.930;2023-05-25T02:07:09;101606.30;;;10.96;83.53
77017;BME280;65949;53.132;17.930;2023-05-25T02:09:36;101609.52;;;10.93;83.65
77017;BME280;65949;53.132;17.930;2023-05-25T02:12:03;101610.58;;;10.91;83.54
77017;BME280;65949;53.132;17.930;2023-05-25T02:14:32;101615.09;;;10.89;83.68
77017;BME280;65949;53.132;17.930;2023-05-25T02:16:59;101612.89;;;10.89;83.50
77017;BME280;65949;53.132;17.930;2023-05-25T02:19:27;101614.34;;;10.89;83.52
77017;BME280;65949;53.132;17.930;2023-05-25T02:21:56;101613.75;;;10.87;83.46
77017;BME280;65949;53.132;17.930;2023-05-25T02:24:23;101613.58;;;10.84;83.54
77017;BME280;65949;53.132;17.930;2023-05-25T02:26:50;101614.20;;;10.84;83.28
77017;BME280;65949;53.132;17.930;2023-05-25T02:29:17;101613.64;;;10.82;83.54
77017;BME280;65949;53.132;17.930;2023-05-25T02:31:44;101616.69;;;10.80;83.54
77017;BME280;65949;53.132;17.930;2023-05-25T02:34:10;101617.48;;;10.80;83.33
77017;BME280;65949;53.132;17.930;2023-05-25T02:36:39;101618.22;;;10.79;83.42
77017;BME280;65949;53.132;17.930;2023-05-25T02:39:09;101622.34;;;10.80;83.35
77017;BME280;65949;53.132;17.930;2023-05-25T02:41:38;101620.41;;;10.80;83.39
77017;BME280;65949;53.132;17.930;2023-05-25T02:44:06;101626.02;;;10.80;83.52
77017;BME280;65949;53.132;17.930;2023-05-25T02:46:33;101623.56;;;10.81;83.42
77017;BME280;65949;53.132;17.930;2023-05-25T02:49:00;101621.57;;;10.82;83.37
77017;BME280;65949;53.132;17.930;2023-05-25T02:51:27;101618.92;;;10.84;83.38
77017;BME280;65949;53.132;17.930;2023-05-25T02:53:55;101622.30;;;10.84;83.30
77017;BME280;65949;53.132;17.930;2023-05-25T02:56:23;101618.98;;;10.86;83.17
77017;BME280;65949;53.132;17.930;2023-05-25T02:58:49;101619.83;;;10.86;83.27
77017;BME280;65949;53.132;17.930;2023-05-25T03:01:24;101620.95;;;10.85;83.07
77017;BME280;65949;53.132;17.930;2023-05-25T03:03:52;101617.83;;;10.85;83.12
77017;BME280;65949;53.132;17.930;2023-05-25T03:06:19;101619.39;;;10.85;83.17
77017;BME280;65949;53.132;17.930;2023-05-25T03:08:53;101618.48;;;10.87;82.99
77017;BME280;65949;53.132;17.930;2023-05-25T03:11:20;101621.64;;;10.88;83.05
77017;BME280;65949;53.132;17.930;2023-05-25T03:13:49;101623.52;;;10.86;82.92
77017;BME280;65949;53.132;17.930;2023-05-25T03:16:16;101628.95;;;10.86;82.74
77017;BME280;65949;53.132;17.930;2023-05-25T03:18:43;101629.64;;;10.86;82.88
77017;BME280;65949;53.132;17.930;2023-05-25T03:21:10;101635.89;;;10.87;82.76
77017;BME280;65949;53.132;17.930;2023-05-25T03:23:37;101639.38;;;10.85;82.86
77017;BME280;65949;53.132;17.930;2023-05-25T03:26:06;101641.25;;;10.83;82.70
77017;BME280;65949;53.132;17.930;2023-05-25T03:28:33;101639.21;;;10.85;82.95
77017;BME280;65949;53.132;17.930;2023-05-25T03:30:59;101639.81;;;10.87;82.72
77017;BME280;65949;53.132;17.930;2023-05-25T03:33:27;101643.10;;;10.89;82.60
77017;BME280;65949;53.132;17.930;2023-05-25T03:35:53;101641.45;;;10.92;82.28
77017;BME280;65949;53.132;17.930;2023-05-25T03:38:20;101641.70;;;10.95;82.46
77017;BME280;65949;53.132;17.930;2023-05-25T03:40:47;101645.67;;;10.95;82.08
77017;BME280;65949;53.132;17.930;2023-05-25T03:43:13;101647.80;;;10.95;82.16
77017;BME280;65949;53.132;17.930;2023-05-25T03:45:42;101653.03;;;10.95;82.01
77017;BME280;65949;53.132;17.930;2023-05-25T03:48:09;101647.40;;;10.93;82.16
77017;BME280;65949;53.132;17.930;2023-05-25T03:50:36;101642.54;;;10.90;82.24
77017;BME280;65949;53.132;17.930;2023-05-25T03:53:03;101643.23;;;10.89;82.14
77017;BME280;65949;53.132;17.930;2023-05-25T03:55:29;101644.19;;;10.89;82.25
77017;BME280;65949;53.132;17.930;2023-05-25T03:57:57;101639.29;;;10.89;82.07
77017;BME280;65949;53.132;17.930;2023-05-25T04:00:26;101639.78;;;10.93;81.99
77017;BME280;65949;53.132;17.930;2023-05-25T04:02:53;101641.48;;;10.97;81.81
77017;BME280;65949;53.132;17.930;2023-05-25T04:05:21;101640.13;;;11.02;81.83
77017;BME280;65949;53.132;17.930;2023-05-25T04:07:48;101638.67;;;11.02;81.70
77017;BME280;65949;53.132;17.930;2023-05-25T04:10:14;101636.73;;;11.05;81.76
77017;BME280;65949;53.132;17.930;2023-05-25T04:12:41;101637.48;;;11.07;81.46
77017;BME280;65949;53.132;17.930;2023-05-25T04:15:08;101640.05;;;11.11;81.32
77017;BME280;65949;53.132;17.930;2023-05-25T04:17:44;101640.80;;;11.20;81.32
77017;BME280;65949;53.132;17.930;2023-05-25T04:20:11;101642.39;;;11.27;81.29
77017;BME280;65949;53.132;17.930;2023-05-25T04:22:39;101641.89;;;11.33;81.13
77017;BME280;65949;53.132;17.930;2023-05-25T04:25:06;101642.27;;;11.40;80.86
77017;BME280;65949;53.132;17.930;2023-05-25T04:27:34;101643.89;;;11.45;80.65
77017;BME280;65949;53.132;17.930;2023-05-25T04:30:02;101641.43;;;11.48;80.59
77017;BME280;65949;53.132;17.930;2023-05-25T04:32:47;101641.64;;;11.47;80.37
77017;BME280;65949;53.132;17.930;2023-05-25T04:35:32;101642.60;;;11.52;80.61
77017;BME280;65949;53.132;17.930;2023-05-25T04:37:59;101643.79;;;11.57;80.39
77017;BME280;65949;53.132;17.930;2023-05-25T04:40:29;101646.83;;;11.62;80.25
77017;BME280;65949;53.132;17.930;2023-05-25T04:42:58;101651.35;;;11.67;80.08
77017;BME280;65949;53.132;17.930;2023-05-25T04:45:25;101653.79;;;11.80;79.80
77017;BME280;65949;53.132;17.930;2023-05-25T04:47:53;101652.22;;;12.53;78.54
77017;BME280;65949;53.132;17.930;2023-05-25T04:50:19;101646.02;;;13.33;76.83
77017;BME280;65949;53.132;17.930;2023-05-25T04:52:46;101649.59;;;13.43;76.80
77017;BME280;65949;53.132;17.930;2023-05-25T04:55:13;101646.33;;;14.16;73.53
77017;BME280;65949;53.132;17.930;2023-05-25T04:57:42;101644.91;;;14.82;72.40
77017;BME280;65949;53.132;17.930;2023-05-25T05:00:09;101648.02;;;15.40;70.69
77017;BME280;65949;53.132;17.930;2023-05-25T05:02:38;101651.46;;;16.04;69.87
77017;BME280;65949;53.132;17.930;2023-05-25T05:05:06;101648.89;;;16.57;67.64
77017;BME280;65949;53.132;17.930;2023-05-25T05:07:33;101651.80;;;16.90;66.64
77017;BME280;65949;53.132;17.930;2023-05-25T05:10:00;101653.22;;;17.14;65.81
77017;BME280;65949;53.132;17.930;2023-05-25T05:12:27;101650.29;;;17.41;65.85
77017;BME280;65949;53.132;17.930;2023-05-25T05:14:56;101650.22;;;17.64;64.05
77017;BME280;65949;53.132;17.930;2023-05-25T05:17:23;101647.98;;;17.59;63.22
77017;BME280;65949;53.132;17.930;2023-05-25T05:19:51;101655.17;;;17.47;63.97
77017;BME280;65949;53.132;17.930;2023-05-25T05:22:18;101657.48;;;16.99;63.89
77017;BME280;65949;53.132;17.930;2023-05-25T05:24:45;101657.42;;;16.57;64.77
77017;BME280;65949;53.132;17.930;2023-05-25T05:27:17;101647.22;;;16.88;64.03
77017;BME280;65949;53.132;17.930;2023-05-25T05:29:51;101644.76;;;17.31;62.96
77017;BME280;65949;53.132;17.930;2023-05-25T05:32:18;101639.48;;;17.69;61.51
77017;BME280;65949;53.132;17.930;2023-05-25T05:34:44;101637.09;;;17.85;61.16
77017;BME280;65949;53.132;17.930;2023-05-25T05:37:23;101641.21;;;18.02;60.52
77017;BME280;65949;53.132;17.930;2023-05-25T05:39:50;101641.52;;;18.20;60.55
77017;BME280;65949;53.132;17.930;2023-05-25T05:42:18;101648.88;;;18.47;60.01
77017;BME280;65949;53.132;17.930;2023-05-25T05:44:45;101652.20;;;18.67;59.58
77017;BME280;65949;53.132;17.930;2023-05-25T05:47:11;101653.98;;;18.83;59.11
77017;BME280;65949;53.132;17.930;2023-05-25T05:49:38;101651.29;;;19.00;58.03
77017;BME280;65949;53.132;17.930;2023-05-25T05:52:07;101655.06;;;18.98;58.02
77017;BME280;65949;53.132;17.930;2023-05-25T05:54:34;101655.58;;;18.99;57.38
77017;BME280;65949;53.132;17.930;2023-05-25T05:57:05;101660.30;;;19.01;58.32
77017;BME280;65949;53.132;17.930;2023-05-25T05:59:33;101661.70;;;19.09;56.92
77017;BME280;65949;53.132;17.930;2023-05-25T06:02:00;101666.92;;;19.01;57.26
77017;BME280;65949;53.132;17.930;2023-05-25T06:04:27;101668.80;;;18.85;57.42
77017;BME280;65949;53.132;17.930;2023-05-25T06:06:54;101674.77;;;18.90;58.02
77017;BME280;65949;53.132;17.930;2023-05-25T06:09:21;101674.80;;;18.96;57.31
77017;BME280;65949;53.132;17.930;2023-05-25T06:11:48;101680.36;;;19.00;57.75
77017;BME280;65949;53.132;17.930;2023-05-25T06:14:14;101675.00;;;18.92;57.58
77017;BME280;65949;53.132;17.930;2023-05-25T06:16:41;101681.20;;;18.86;57.93
77017;BME280;65949;53.132;17.930;2023-05-25T06:19:09;101681.38;;;18.76;57.93
77017;BME280;65949;53.132;17.930;2023-05-25T06:21:36;101682.42;;;18.50;58.02
77017;BME280;65949;53.132;17.930;2023-05-25T06:24:03;101680.25;;;18.01;59.14
77017;BME280;65949;53.132;17.930;2023-05-25T06:26:30;101683.77;;;17.68;60.16
77017;BME280;65949;53.132;17.930;2023-05-25T06:28:57;101682.45;;;17.40;60.73
77017;BME280;65949;53.132;17.930;2023-05-25T06:31:24;101680.95;;;17.34;61.15
77017;BME280;65949;53.132;17.930;2023-05-25T06:33:52;101673.73;;;17.30;61.32
77017;BME280;65949;53.132;17.930;2023-05-25T06:36:19;101674.54;;;17.29;61.70
77017;BME280;65949;53.132;17.930;2023-05-25T06:38:47;101676.31;;;17.30;61.75
77017;BME280;65949;53.132;17.930;2023-05-25T06:41:14;101674.31;;;17.29;61.69
77017;BME280;65949;53.132;17.930;2023-05-25T06:43:41;101679.30;;;17.25;61.82
77017;BME280;65949;53.132;17.930;2023-05-25T06:46:16;101675.07;;;17.27;62.23
77017;BME280;65949;53.132;17.930;2023-05-25T06:48:43;101678.63;;;17.31;61.68
77017;BME280;65949;53.132;17.930;2023-05-25T06:51:10;101676.89;;;17.20;62.26
77017;BME280;65949;53.132;17.930;2023-05-25T06:53:37;101674.15;;;17.21;62.51
77017;BME280;65949;53.132;17.930;2023-05-25T06:56:06;101669.45;;;17.23;62.21
77017;BME280;65949;53.132;17.930;2023-05-25T06:58:33;101676.83;;;17.24;61.96
77017;BME280;65949;53.132;17.930;2023-05-25T07:00:59;101672.30;;;17.21;62.15
77017;BME280;65949;53.132;17.930;2023-05-25T07:03:27;101679.27;;;17.17;62.32
77017;BME280;65949;53.132;17.930;2023-05-25T07:05:53;101681.46;;;17.14;62.13
77017;BME280;65949;53.132;17.930;2023-05-25T07:08:20;101677.31;;;17.21;62.47
77017;BME280;65949;53.132;17.930;2023-05-25T07:10:47;101674.98;;;17.38;62.14
77017;BME280;65949;53.132;17.930;2023-05-25T07:13:13;101673.86;;;17.52;61.90
77017;BME280;65949;53.132;17.930;2023-05-25T07:15:40;101671.38;;;17.62;61.56
77017;BME280;65949;53.132;17.930;2023-05-25T07:18:07;101672.10;;;17.71;61.32
77017;BME280;65949;53.132;17.930;2023-05-25T07:20:39;101676.46;;;17.82;61.23
77017;BME280;65949;53.132;17.930;2023-05-25T07:23:08;101678.83;;;17.89;60.77
77017;BME280;65949;53.132;17.930;2023-05-25T07:25:39;101686.60;;;17.94;60.49
77017;BME280;65949;53.132;17.930;2023-05-25T07:28:07;101688.66;;;18.07;60.46
77017;BME280;65949;53.132;17.930;2023-05-25T07:30:34;101691.52;;;18.11;60.15
77017;BME280;65949;53.132;17.930;2023-05-25T07:33:01;101693.56;;;18.07;60.11
77017;BME280;65949;53.132;17.930;2023-05-25T07:35:27;101695.43;;;18.11;60.51
77017;BME280;65949;53.132;17.930;2023-05-25T07:37:57;101698.90;;;18.19;59.88
77017;BME280;65949;53.132;17.930;2023-05-25T07:40:25;101700.25;;;18.27;59.72
77017;BME280;65949;53.132;17.930;2023-05-25T07:42:53;101699.77;;;18.38;59.41
77017;BME280;65949;53.132;17.930;2023-05-25T07:45:20;101697.34;;;18.36;59.17
77017;BME280;65949;53.132;17.930;2023-05-25T07:47:46;101701.55;;;18.39;59.53
77017;BME280;65949;53.132;17.930;2023-05-25T07:50:14;101696.80;;;18.44;59.06
77017;BME280;65949;53.132;17.930;2023-05-25T07:52:41;101699.23;;;18.50;59.42
77017;BME280;65949;53.132;17.930;2023-05-25T07:55:08;101700.54;;;18.62;59.31
77017;BME280;65949;53.132;17.930;2023-05-25T07:57:35;101700.12;;;18.75;59.11
77017;BME280;65949;53.132;17.930;2023-05-25T08:00:02;101698.73;;;18.91;58.78
77017;BME280;65949;53.132;17.930;2023-05-25T08:02:39;101702.66;;;18.95;57.55
77017;BME280;65949;53.132;17.930;2023-05-25T08:05:07;101702.16;;;18.78;57.88
77017;BME280;65949;53.132;17.930;2023-05-25T08:07:34;101701.13;;;18.67;58.20
77017;BME280;65949;53.132;17.930;2023-05-25T08:10:02;101697.75;;;18.75;58.65
77017;BME280;65949;53.132;17.930;2023-05-25T08:12:29;101697.58;;;18.91;58.02
77017;BME280;65949;53.132;17.930;2023-05-25T08:14:56;101699.72;;;18.97;58.04
77017;BME280;65949;53.132;17.930;2023-05-25T08:17:22;101699.35;;;19.11;58.04
77017;BME280;65949;53.132;17.930;2023-05-25T08:19:49;101701.93;;;19.20;56.67
77017;BME280;65949;53.132;17.930;2023-05-25T08:22:16;101698.34;;;19.21;57.30
77017;BME280;65949;53.132;17.930;2023-05-25T08:24:42;101696.23;;;19.34;56.98
77017;BME280;65949;53.132;17.930;2023-05-25T08:27:09;101694.68;;;19.47;56.76
77017;BME280;65949;53.132;17.930;2023-05-25T08:29:36;101699.03;;;19.50;55.90
77017;BME280;65949;53.132;17.930;2023-05-25T08:32:03;101694.52;;;19.54;55.44
77017;BME280;65949;53.132;17.930;2023-05-25T08:34:29;101693.08;;;19.58;55.56
77017;BME280;65949;53.132;17.930;2023-05-25T08:36:56;101693.79;;;19.72;56.07
77017;BME280;65949;53.132;17.930;2023-05-25T08:39:23;101692.27;;;19.84;54.59
77017;BME280;65949;53.132;17.930;2023-05-25T08:41:49;101687.08;;;19.85;54.38
77017;BME280;65949;53.132;17.930;2023-05-25T08:44:17;101685.60;;;19.85;54.31
77017;BME280;65949;53.132;17.930;2023-05-25T08:46:46;101682.53;;;19.91;55.05
77017;BME280;65949;53.132;17.930;2023-05-25T08:49:14;101687.16;;;20.00;53.12
77017;BME280;65949;53.132;17.930;2023-05-25T08:51:48;101684.38;;;19.99;53.13
77017;BME280;65949;53.132;17.930;2023-05-25T08:54:23;101683.02;;;20.11;53.54
77017;BME280;65949;53.132;17.930;2023-05-25T08:59:54;101689.02;;;20.44;52.47
77017;BME280;65949;53.132;17.930;2023-05-25T09:02:33;101689.77;;;20.55;52.18
77017;BME280;65949;53.132;17.930;2023-05-25T09:05:01;101689.31;;;20.63;51.60
77017;BME280;65949;53.132;17.930;2023-05-25T09:07:28;101686.26;;;20.79;51.67
77017;BME280;65949;53.132;17.930;2023-05-25T09:09:55;101694.82;;;20.85;50.61
77017;BME280;65949;53.132;17.930;2023-05-25T09:12:23;101696.29;;;20.80;50.32
77017;BME280;65949;53.132;17.930;2023-05-25T09:14:51;101697.37;;;20.69;49.71
77017;BME280;65949;53.132;17.930;2023-05-25T09:17:18;101697.90;;;20.60;50.02
77017;BME280;65949;53.132;17.930;2023-05-25T09:19:46;101698.81;;;20.70;49.59
77017;BME280;65949;53.132;17.930;2023-05-25T09:22:13;101694.27;;;20.78;49.46
77017;BME280;65949;53.132;17.930;2023-05-25T09:24:40;101687.77;;;20.85;49.32
77017;BME280;65949;53.132;17.930;2023-05-25T09:27:10;101693.22;;;20.91;49.77
77017;BME280;65949;53.132;17.930;2023-05-25T09:29:37;101690.70;;;21.12;50.21
77017;BME280;65949;53.132;17.930;2023-05-25T09:32:04;101687.44;;;21.35;50.06
77017;BME280;65949;53.132;17.930;2023-05-25T09:34:32;101689.11;;;21.48;49.29
77017;BME280;65949;53.132;17.930;2023-05-25T09:37:11;101694.33;;;21.35;48.91
77017;BME280;65949;53.132;17.930;2023-05-25T09:39:43;101694.21;;;21.29;48.80
77017;BME280;65949;53.132;17.930;2023-05-25T09:42:10;101695.92;;;21.31;48.86
77017;BME280;65949;53.132;17.930;2023-05-25T09:49:10;101697.89;;;21.66;48.14
77017;BME280;65949;53.132;17.930;2023-05-25T09:51:37;101695.41;;;21.82;48.23
77017;BME280;65949;53.132;17.930;2023-05-25T09:54:04;101691.97;;;22.06;48.12
77017;BME280;65949;53.132;17.930;2023-05-25T09:56:35;101693.95;;;22.24;47.16
77017;BME280;65949;53.132;17.930;2023-05-25T09:59:02;101693.48;;;22.24;46.74
77017;BME280;65949;53.132;17.930;2023-05-25T10:01:31;101695.48;;;22.10;46.79
77017;BME280;65949;53.132;17.930;2023-05-25T10:03:58;101693.79;;;22.05;47.54
77017;BME280;65949;53.132;17.930;2023-05-25T10:06:27;101693.90;;;22.14;46.73
77017;BME280;65949;53.132;17.930;2023-05-25T10:08:56;101696.01;;;22.27;46.77
77017;BME280;65949;53.132;17.930;2023-05-25T10:11:27;101699.32;;;22.34;46.35
77017;BME280;65949;53.132;17.930;2023-05-25T10:13:54;101699.16;;;22.38;46.54
77017;BME280;65949;53.132;17.930;2023-05-25T10:16:25;101697.66;;;22.28;46.01
77017;BME280;65949;53.132;17.930;2023-05-25T10:21:29;101695.30;;;22.17;46.63
77017;BME280;65949;53.132;17.930;2023-05-25T10:24:49;101700.92;;;22.09;46.40
77017;BME280;65949;53.132;17.930;2023-05-25T10:26:52;101701.61;;;21.98;46.87
77017;BME280;65949;53.132;17.930;2023-05-25T10:29:20;101704.82;;;21.93;47.14
77017;BME280;65949;53.132;17.930;2023-05-25T10:31:47;101705.42;;;21.94;47.44
77017;BME280;65949;53.132;17.930;2023-05-25T10:34:15;101703.27;;;22.14;47.00
77017;BME280;65949;53.132;17.930;2023-05-25T10:36:42;101708.21;;;22.40;46.08
77017;BME280;65949;53.132;17.930;2023-05-25T10:39:09;101704.20;;;22.61;45.71
77017;BME280;65949;53.132;17.930;2023-05-25T10:41:36;101701.58;;;22.87;45.12
77017;BME280;65949;53.132;17.930;2023-05-25T10:44:02;101700.73;;;23.10;45.12
77017;BME280;65949;53.132;17.930;2023-05-25T10:46:29;101704.89;;;23.09;44.52
77017;BME280;65949;53.132;17.930;2023-05-25T10:48:56;101702.41;;;22.86;44.45
77017;BME280;65949;53.132;17.930;2023-05-25T10:51:40;101706.02;;;22.57;44.68
77017;BME280;65949;53.132;17.930;2023-05-25T10:54:06;101701.22;;;22.43;45.13
77017;BME280;65949;53.132;17.930;2023-05-25T10:56:33;101696.80;;;22.54;44.45
77017;BME280;65949;53.132;17.930;2023-05-25T10:59:00;101692.81;;;22.66;45.04
77017;BME280;65949;53.132;17.930;2023-05-25T11:01:29;101691.27;;;22.73;43.93
77017;BME280;65949;53.132;17.930;2023-05-25T11:09:05;101686.40;;;22.43;44.74
77017;BME280;65949;53.132;17.930;2023-05-25T11:14:22;101688.73;;;22.60;44.10
77017;BME280;65949;53.132;17.930;2023-05-25T11:22:31;101678.66;;;22.27;43.92
77017;BME280;65949;53.132;17.930;2023-05-25T11:24:59;101677.75;;;22.18;43.91
77017;BME280;65949;53.132;17.930;2023-05-25T11:27:27;101676.11;;;22.25;44.43
77017;BME280;65949;53.132;17.930;2023-05-25T11:29:55;101672.09;;;22.48;44.48
77017;BME280;65949;53.132;17.930;2023-05-25T11:32:23;101664.59;;;22.71;44.48
77017;BME280;65949;53.132;17.930;2023-05-25T11:34:52;101665.82;;;23.01;43.68
77017;BME280;65949;53.132;17.930;2023-05-25T11:37:20;101662.45;;;23.12;42.64
77017;BME280;65949;53.132;17.930;2023-05-25T11:39:51;101658.91;;;23.17;42.67
77017;BME280;65949;53.132;17.930;2023-05-25T11:42:19;101661.45;;;23.31;42.76
77017;BME280;65949;53.132;17.930;2023-05-25T11:44:47;101660.98;;;23.44;42.45
77017;BME280;65949;53.132;17.930;2023-05-25T11:47:15;101659.61;;;23.44;42.48
77017;BME280;65949;53.132;17.930;2023-05-25T11:49:45;101656.38;;;23.55;42.67
77017;BME280;65949;53.132;17.930;2023-05-25T11:52:14;101658.98;;;23.61;41.73
77017;BME280;65949;53.132;17.930;2023-05-25T11:54:42;101658.50;;;23.64;41.92
77017;BME280;65949;53.132;17.930;2023-05-25T11:57:16;101658.18;;;23.60;41.27
77017;BME280;65949;53.132;17.930;2023-05-25T11:59:51;101659.66;;;23.63;41.64
77017;BME280;65949;53.132;17.930;2023-05-25T12:02:18;101660.30;;;23.81;41.29
77017;BME280;65949;53.132;17.930;2023-05-25T12:04:56;101655.34;;;23.96;41.11
77017;BME280;65949;53.132;17.930;2023-05-25T12:07:28;101649.21;;;24.06;40.79
77017;BME280;65949;53.132;17.930;2023-05-25T12:10:10;101651.32;;;24.00;40.96
77017;BME280;65949;53.132;17.930;2023-05-25T12:12:42;101652.18;;;23.83;41.08
77017;BME280;65949;53.132;17.930;2023-05-25T12:15:10;101656.73;;;23.83;40.85
77017;BME280;65949;53.132;17.930;2023-05-25T12:17:40;101656.73;;;23.79;40.82
77017;BME280;65949;53.132;17.930;2023-05-25T12:20:08;101652.25;;;23.81;40.80
77017;BME280;65949;53.132;17.930;2023-05-25T12:22:40;101651.76;;;23.66;40.83
77017;BME280;65949;53.132;17.930;2023-05-25T12:25:09;101652.69;;;23.44;41.04
77017;BME280;65949;53.132;17.930;2023-05-25T12:27:37;101652.52;;;23.32;41.29
77017;BME280;65949;53.132;17.930;2023-05-25T12:30:07;101655.80;;;23.17;41.46
77017;BME280;65949;53.132;17.930;2023-05-25T12:32:53;101656.02;;;23.03;42.27
77017;BME280;65949;53.132;17.930;2023-05-25T12:35:20;101656.50;;;22.85;42.30
77017;BME280;65949;53.132;17.930;2023-05-25T12:37:47;101654.59;;;22.70;42.86
77017;BME280;65949;53.132;17.930;2023-05-25T12:40:20;101650.38;;;22.78;43.05
77017;BME280;65949;53.132;17.930;2023-05-25T12:42:55;101651.20;;;22.92;43.30
77017;BME280;65949;53.132;17.930;2023-05-25T12:45:22;101646.02;;;23.18;42.70
77017;BME280;65949;53.132;17.930;2023-05-25T12:47:49;101646.65;;;23.47;42.28
77017;BME280;65949;53.132;17.930;2023-05-25T12:50:16;101640.15;;;23.65;41.55
77017;BME280;65949;53.132;17.930;2023-05-25T12:52:45;101639.05;;;23.73;42.07
77017;BME280;65949;53.132;17.930;2023-05-25T12:57:48;101634.89;;;24.05;41.43
77017;BME280;65949;53.132;17.930;2023-05-25T13:00:22;101633.01;;;24.20;40.82
77017;BME280;65949;53.132;17.930;2023-05-25T13:02:50;101635.81;;;24.29;40.30
77017;BME280;65949;53.132;17.930;2023-05-25T13:05:21;101634.75;;;24.35;40.42
77017;BME280;65949;53.132;17.930;2023-05-25T13:07:48;101634.73;;;24.13;40.62
77017;BME280;65949;53.132;17.930;2023-05-25T13:10:16;101637.95;;;24.03;40.92
77017;BME280;65949;53.132;17.930;2023-05-25T13:12:47;101636.08;;;23.94;40.77
77017;BME280;65949;53.132;17.930;2023-05-25T13:15:16;101633.98;;;24.05;40.59
77017;BME280;65949;53.132;17.930;2023-05-25T13:17:44;101634.09;;;24.21;40.31
77017;BME280;65949;53.132;17.930;2023-05-25T13:20:12;101632.66;;;24.17;39.92